createdAt,value
2018-07-12T00:02:00.825Z,16.80
2018-07-12T00:04:27.797Z,17.03
2018-07-12T00:06:55.667Z,15.43
2018-07-12T00:09:22.678Z,16.60
2018-07-12T00:11:49.715Z,16.93
2018-07-12T00:14:16.784Z,16.70
2018-07-12T00:16:44.170Z,17.57
2018-07-12T00:19:11.156Z,16.70
2018-07-12T00:21:38.208Z,15.90
2018-07-12T00:24:05.773Z,15.23
2018-07-12T00:26:32.864Z,15.83
2018-07-12T00:29:00.011Z,16.30
2018-07-12T00:31:26.995Z,17.23
2018-07-12T00:33:54.064Z,16.27
2018-07-12T00:36:21.199Z,15.80
2018-07-12T00:38:48.883Z,16.37
2018-07-12T00:41:16.812Z,17.07
2018-07-12T00:43:43.760Z,16.93
2018-07-12T00:46:10.834Z,17.17
2018-07-12T00:48:37.863Z,16.13
2018-07-12T00:51:05.608Z,16.03
2018-07-12T00:53:32.660Z,16.60
2018-07-12T00:55:59.817Z,16.77
2018-07-12T00:58:27.372Z,18.83
2018-07-12T01:00:54.467Z,18.83
2018-07-12T01:03:22.280Z,18.93
2018-07-12T01:05:49.277Z,20.43
2018-07-12T01:08:16.345Z,19.27
2018-07-12T01:10:43.382Z,19.17
2018-07-12T01:13:10.431Z,18.83
2018-07-12T01:15:37.484Z,17.40
2018-07-12T01:18:04.508Z,18.40
2018-07-12T01:20:32.090Z,18.03
2018-07-12T01:22:59.104Z,17.90
2018-07-12T01:25:26.164Z,18.33
2018-07-12T01:27:53.220Z,18.20
2018-07-12T01:30:20.287Z,20.10
2018-07-12T01:32:47.696Z,20.30
2018-07-12T01:35:14.791Z,19.37
2018-07-12T01:37:41.993Z,20.53
2018-07-12T01:40:09.181Z,20.63
2018-07-12T01:42:36.247Z,19.77
2018-07-12T01:45:03.405Z,19.97
2018-07-12T01:47:30.447Z,20.33
2018-07-12T01:49:57.521Z,20.53
2018-07-12T02:05:26.616Z,20.83
2018-07-12T02:07:56.078Z,22.07
2018-07-12T02:10:23.137Z,25.37
2018-07-12T02:12:50.220Z,26.97
2018-07-12T02:15:17.232Z,27.60
2018-07-12T02:17:44.268Z,25.27
2018-07-12T02:20:11.417Z,24.50
2018-07-12T02:22:38.483Z,23.63
2018-07-12T02:25:05.568Z,23.47
2018-07-12T02:27:32.601Z,22.17
2018-07-12T02:29:59.735Z,22.17
2018-07-12T02:32:27.102Z,22.63
2018-07-12T02:34:54.558Z,21.23
2018-07-12T02:37:21.721Z,20.00
2018-07-12T02:39:48.713Z,21.50
2018-07-12T02:42:16.364Z,22.27
2018-07-12T02:44:44.461Z,21.57
2018-07-12T02:47:11.500Z,22.80
2018-07-12T02:49:39.087Z,21.27
2018-07-12T02:52:06.208Z,21.57
2018-07-12T02:54:33.572Z,21.87
2018-07-12T03:10:01.332Z,21.63
2018-07-12T03:12:28.402Z,23.07
2018-07-12T03:14:56.632Z,25.87
2018-07-12T03:17:24.280Z,26.30
2018-07-12T03:19:51.209Z,24.10
2018-07-12T03:22:18.370Z,22.77
2018-07-12T03:24:45.980Z,20.93
2018-07-12T03:27:13.021Z,20.33
2018-07-12T03:29:39.993Z,19.00
2018-07-12T03:32:07.148Z,18.30
2018-07-12T03:34:34.176Z,20.30
2018-07-12T03:37:03.350Z,18.60
2018-07-12T03:39:30.597Z,21.43
2018-07-12T03:41:58.908Z,20.03
2018-07-12T03:44:26.694Z,19.37
2018-07-12T03:46:54.540Z,19.83
2018-07-12T03:49:21.484Z,20.07
2018-07-12T03:51:48.536Z,21.90
2018-07-12T03:54:15.484Z,22.20
2018-07-12T03:56:43.367Z,21.30
2018-07-12T03:59:10.482Z,24.17
2018-07-12T04:01:37.624Z,24.50
2018-07-12T04:04:04.627Z,28.13
2018-07-12T04:06:31.644Z,28.47
2018-07-12T04:08:58.764Z,29.93
2018-07-12T04:21:10.896Z,27.57
2018-07-12T04:23:38.086Z,19.47
2018-07-12T04:26:05.079Z,16.53
2018-07-12T04:28:32.962Z,14.07
2018-07-12T04:31:01.542Z,13.50
2018-07-12T04:33:29.213Z,12.57
2018-07-12T04:35:56.432Z,11.97
2018-07-12T04:38:23.376Z,11.30
2018-07-12T04:40:50.545Z,10.63
2018-07-12T04:43:17.628Z,10.53
2018-07-12T04:45:44.737Z,11.90
2018-07-12T04:48:11.793Z,10.60
2018-07-12T04:50:38.833Z,10.03
2018-07-12T04:53:06.028Z,10.20
2018-07-12T04:55:33.070Z,10.15
2018-07-12T04:58:00.111Z,10.63
2018-07-12T05:00:27.156Z,9.15
2018-07-12T05:02:54.177Z,9.25
2018-07-12T05:05:21.136Z,10.50
2018-07-12T05:07:48.104Z,9.55
2018-07-12T05:10:15.260Z,9.55
2018-07-12T05:12:42.410Z,9.18
2018-07-12T05:15:09.533Z,9.23
2018-07-12T05:17:36.657Z,8.98
2018-07-12T05:20:04.133Z,9.20
2018-07-12T05:22:31.152Z,9.38
2018-07-12T05:24:58.248Z,10.30
2018-07-12T05:27:26.280Z,10.25
2018-07-12T05:29:53.292Z,9.80
2018-07-12T05:32:21.260Z,9.58
2018-07-12T05:34:48.497Z,9.68
2018-07-12T05:37:16.408Z,9.80
2018-07-12T05:39:44.252Z,9.70
2018-07-12T05:42:12.125Z,9.43
2018-07-12T05:44:40.022Z,10.32
2018-07-12T05:47:07.826Z,10.75
2018-07-12T05:49:35.699Z,8.95
2018-07-12T05:52:03.461Z,8.78
2018-07-12T05:54:31.228Z,9.20
2018-07-12T05:56:59.127Z,8.60
2018-07-12T05:59:26.854Z,8.75
2018-07-12T06:02:00.141Z,8.18
2018-07-12T06:04:29.226Z,8.30
2018-07-12T06:06:57.040Z,8.20
2018-07-12T06:09:25.812Z,9.00
2018-07-12T06:11:54.051Z,8.95
2018-07-12T06:14:21.946Z,9.30
2018-07-12T06:16:50.245Z,8.70
2018-07-12T06:19:18.099Z,8.48
2018-07-12T06:21:45.954Z,8.78
2018-07-12T06:24:13.747Z,7.60
2018-07-12T06:26:41.615Z,8.10
2018-07-12T06:29:09.996Z,8.40
2018-07-12T06:31:37.865Z,8.93
2018-07-12T06:34:05.713Z,8.18
2018-07-12T06:36:33.576Z,8.70
2018-07-12T06:39:02.310Z,8.58
2018-07-12T06:41:30.140Z,8.38
2018-07-12T06:43:57.994Z,8.25
2018-07-12T06:46:25.862Z,8.80
2018-07-12T06:48:53.632Z,8.33
2018-07-12T06:51:21.528Z,8.28
2018-07-12T06:53:49.382Z,7.08
2018-07-12T06:56:17.240Z,6.20
2018-07-12T06:58:45.109Z,6.45
2018-07-12T07:01:12.967Z,6.62
2018-07-12T07:03:41.891Z,6.22
2018-07-12T07:06:10.248Z,6.87
2018-07-12T07:08:38.135Z,6.37
2018-07-12T07:11:06.005Z,6.90
2018-07-12T07:13:33.751Z,6.85
2018-07-12T07:16:01.839Z,6.28
2018-07-12T07:18:29.694Z,6.80
2018-07-12T07:20:57.650Z,6.22
2018-07-12T07:23:25.628Z,5.35
2018-07-12T07:25:53.596Z,6.42
2018-07-12T07:28:21.501Z,6.00
2018-07-12T07:30:49.370Z,6.90
2018-07-12T07:33:17.194Z,6.30
2018-07-12T07:35:45.104Z,6.23
2018-07-12T07:38:13.235Z,5.93
2018-07-12T07:40:56.172Z,5.73
2018-07-12T07:43:23.998Z,6.53
2018-07-12T07:45:58.769Z,7.00
2018-07-12T07:48:26.667Z,5.20
2018-07-12T07:50:54.750Z,5.57
2018-07-12T07:53:22.613Z,6.63
2018-07-12T07:55:50.334Z,6.83
2018-07-12T07:58:18.164Z,7.17
2018-07-12T08:00:45.989Z,6.57
2018-07-12T08:03:13.847Z,6.67
2018-07-12T08:05:41.698Z,6.67
2018-07-12T08:08:09.498Z,6.57
2018-07-12T08:10:38.190Z,6.37
2018-07-12T08:13:06.045Z,6.07
2018-07-12T08:35:09.793Z,6.03
2018-07-12T08:37:37.966Z,5.50
2018-07-12T08:40:05.832Z,6.23
2018-07-12T08:42:33.884Z,5.77
2018-07-12T08:45:02.670Z,5.90
2018-07-12T08:47:30.472Z,5.62
2018-07-12T08:50:01.188Z,4.92
2018-07-12T08:52:30.157Z,4.20
2018-07-12T08:54:59.571Z,5.53
2018-07-12T08:57:28.606Z,5.40
2018-07-12T08:59:56.968Z,5.05
2018-07-12T09:02:25.899Z,4.35
2018-07-12T09:04:57.104Z,3.80
2018-07-12T09:07:25.373Z,4.00
2018-07-12T09:09:56.340Z,3.58
2018-07-12T09:12:25.297Z,4.12
2018-07-12T09:14:54.540Z,3.77
2018-07-12T09:17:24.198Z,3.60
2018-07-12T09:19:52.008Z,4.03
2018-07-12T09:22:20.926Z,3.67
2018-07-12T09:24:50.361Z,4.30
2018-07-12T09:27:18.706Z,3.90
2018-07-12T09:29:47.385Z,3.75
2018-07-12T09:32:16.589Z,4.15
2018-07-12T09:34:45.166Z,4.55
2018-07-12T09:37:14.334Z,4.05
2018-07-12T09:39:42.476Z,4.50
2018-07-12T09:42:11.255Z,5.08
2018-07-12T09:44:39.207Z,5.60
2018-07-12T09:47:07.659Z,5.05
2018-07-12T09:49:36.612Z,5.00
2018-07-12T09:52:09.542Z,6.03
2018-07-12T09:54:37.448Z,4.33
2018-07-12T09:57:10.565Z,4.72
2018-07-12T09:59:39.117Z,4.42
2018-07-12T10:02:12.109Z,4.58
2018-07-12T10:04:40.418Z,5.03
2018-07-12T10:07:13.492Z,4.53
2018-07-12T10:09:46.648Z,4.55
2018-07-12T10:12:20.560Z,6.12
2018-07-12T10:14:56.384Z,7.08
2018-07-12T10:17:31.847Z,4.58
2018-07-12T10:20:03.809Z,3.13
2018-07-12T10:22:35.275Z,3.83
2018-07-12T10:25:19.069Z,6.00
2018-07-12T10:27:48.887Z,6.70
2018-07-12T10:30:18.828Z,6.57
2018-07-12T10:32:49.627Z,6.70
2018-07-12T10:35:39.342Z,7.57
2018-07-12T10:38:10.731Z,8.37
2018-07-12T10:40:43.521Z,8.43
2018-07-12T10:43:39.773Z,9.50
2018-07-12T10:46:11.410Z,5.93
2018-07-12T10:48:42.780Z,8.07
2018-07-12T10:51:13.351Z,11.30
2018-07-12T10:53:44.550Z,11.10
2018-07-12T10:56:16.250Z,14.23
2018-07-12T10:58:47.169Z,14.93
2018-07-12T11:01:21.032Z,12.27
2018-07-12T11:03:52.181Z,10.93
2018-07-12T11:06:22.684Z,11.20
2018-07-12T11:08:53.561Z,15.80
2018-07-12T11:11:24.624Z,21.17
2018-07-12T11:13:57.784Z,20.83
2018-07-12T11:16:28.569Z,23.60
2018-07-12T11:18:58.794Z,26.53
2018-07-12T11:21:29.695Z,25.50
2018-07-12T11:24:00.739Z,26.93
2018-07-12T11:26:32.377Z,23.63
2018-07-12T11:29:03.187Z,25.93
2018-07-12T11:31:33.242Z,23.70
2018-07-12T11:34:10.646Z,21.87
2018-07-12T11:36:41.786Z,14.00
2018-07-12T11:39:12.891Z,10.53
2018-07-12T11:41:45.145Z,9.03
2018-07-12T11:44:15.639Z,9.77
2018-07-12T11:46:47.241Z,10.77
2018-07-12T11:49:17.984Z,13.90
2018-07-12T11:51:48.262Z,13.73
2018-07-12T11:54:18.582Z,13.00
2018-07-12T11:56:53.660Z,14.10
2018-07-12T11:59:33.530Z,15.57
2018-07-12T12:02:04.310Z,13.03
2018-07-12T12:04:35.083Z,12.70
2018-07-12T12:07:06.518Z,10.67
2018-07-12T12:09:36.851Z,9.87
2018-07-12T12:12:07.421Z,9.73
2018-07-12T12:16:07.844Z,9.60
2018-07-12T12:18:38.196Z,7.30
2018-07-12T12:21:08.764Z,7.00
2018-07-12T12:23:39.905Z,6.63
2018-07-12T12:26:11.956Z,5.87
2018-07-12T12:28:49.618Z,6.57
2018-07-12T12:31:21.590Z,6.77
2018-07-12T12:33:56.069Z,6.90
2018-07-12T12:36:26.644Z,6.27
2018-07-12T12:38:57.155Z,6.40
2018-07-12T12:41:27.824Z,6.00
2018-07-12T12:44:14.011Z,6.07
2018-07-12T12:46:44.984Z,6.37
2018-07-12T12:49:15.520Z,6.53
2018-07-12T12:51:46.566Z,6.43
2018-07-12T12:54:17.397Z,6.37
2018-07-12T12:56:52.738Z,6.77
2018-07-12T12:59:22.911Z,6.77
2018-07-12T13:01:54.901Z,5.63
2018-07-12T13:04:26.778Z,5.90
2018-07-12T13:07:12.071Z,6.00
2018-07-12T13:09:42.785Z,5.65
2018-07-12T13:12:13.917Z,5.08
2018-07-12T13:14:44.746Z,5.35
2018-07-12T13:17:15.499Z,5.70
2018-07-12T13:19:46.274Z,5.28
2018-07-12T13:22:16.831Z,6.05
2018-07-12T13:24:47.748Z,5.28
2018-07-12T13:27:19.105Z,5.70
2018-07-12T13:30:01.687Z,5.35
2018-07-12T13:32:32.549Z,5.50
2018-07-12T13:35:03.077Z,6.08
2018-07-12T13:37:33.622Z,5.22
2018-07-12T13:40:08.293Z,5.70
2018-07-12T13:42:39.172Z,5.60
2018-07-12T13:45:10.071Z,5.97
2018-07-12T13:47:41.463Z,5.75
2018-07-12T13:50:32.465Z,5.37
2018-07-12T13:53:02.939Z,5.03
2018-07-12T13:55:33.518Z,4.45
2018-07-12T13:58:03.987Z,4.30
2018-07-12T14:00:34.648Z,4.20
2018-07-12T14:03:05.121Z,3.83
2018-07-12T14:05:43.622Z,4.03
2018-07-12T14:08:14.259Z,2.35
2018-07-12T14:10:45.299Z,2.72
2018-07-12T14:13:16.270Z,2.60
2018-07-12T14:15:47.137Z,2.50
2018-07-12T14:18:21.728Z,2.60
2018-07-12T14:20:52.755Z,2.72
2018-07-12T14:23:24.241Z,3.02
2018-07-12T14:25:55.291Z,2.80
2018-07-12T14:28:24.409Z,3.05
2018-07-12T14:30:54.206Z,2.87
2018-07-12T14:33:22.360Z,2.92
2018-07-12T14:35:50.262Z,2.83
2018-07-12T14:38:18.163Z,3.22
2018-07-12T14:40:47.671Z,3.47
2018-07-12T14:43:16.540Z,2.87
2018-07-12T14:45:44.404Z,3.00
2018-07-12T14:48:13.227Z,3.17
2018-07-12T14:50:41.148Z,2.92
2018-07-12T14:53:09.352Z,3.45
2018-07-12T15:12:20.700Z,2.43
2018-07-12T15:14:49.016Z,2.37
2018-07-12T15:17:19.335Z,2.42
2018-07-12T15:19:50.994Z,2.67
2018-07-12T15:22:21.440Z,2.60
2018-07-12T15:24:53.973Z,2.60
2018-07-12T15:27:25.739Z,2.25
2018-07-12T15:29:56.882Z,2.67
2018-07-12T15:32:27.796Z,2.35
2018-07-12T15:34:59.269Z,2.40
2018-07-12T15:37:28.197Z,2.20
2018-07-12T15:39:59.480Z,2.40
2018-07-12T15:42:28.739Z,2.53
2018-07-12T15:44:58.431Z,2.73
2018-07-12T15:47:34.706Z,2.90
2018-07-12T15:50:04.804Z,2.47
2018-07-12T15:52:35.776Z,2.10
2018-07-12T15:55:06.592Z,2.03
2018-07-12T15:57:36.552Z,1.90
2018-07-12T16:00:07.613Z,2.10
2018-07-12T16:02:54.739Z,2.43
2018-07-12T16:05:22.525Z,2.40
2018-07-12T16:07:50.469Z,2.77
2018-07-12T16:10:18.270Z,2.53
2018-07-12T16:12:46.122Z,2.50
2018-07-12T16:15:13.905Z,3.17
2018-07-12T16:17:41.765Z,3.53
2018-07-12T16:20:09.693Z,3.40
2018-07-12T16:22:38.224Z,2.77
2018-07-12T16:25:06.104Z,2.83
2018-07-12T16:27:33.766Z,2.63
2018-07-12T16:30:01.748Z,3.03
2018-07-12T16:32:29.477Z,3.60
2018-07-12T16:34:57.369Z,3.40
2018-07-12T16:37:25.282Z,2.50
2018-07-12T16:39:53.697Z,3.27
2018-07-12T16:42:21.672Z,3.03
2018-07-12T16:44:49.536Z,3.53
2018-07-12T16:47:17.404Z,3.47
2018-07-12T16:49:45.273Z,3.40
2018-07-12T16:52:12.983Z,2.90
2018-07-12T16:54:40.837Z,3.17
2018-07-12T16:57:08.704Z,3.30
2018-07-12T16:59:36.636Z,4.10
2018-07-12T17:02:04.425Z,3.63
2018-07-12T17:04:32.293Z,3.40
2018-07-12T17:07:00.193Z,3.43
2018-07-12T17:09:28.030Z,3.40
2018-07-12T17:11:55.791Z,3.50
2018-07-12T17:14:23.772Z,3.70
2018-07-12T17:16:52.266Z,3.83
2018-07-12T17:19:20.070Z,3.73
2018-07-12T17:21:47.879Z,3.00
2018-07-12T17:24:16.073Z,3.83
2018-07-12T17:26:43.958Z,3.90
2018-07-12T17:29:11.911Z,3.57
2018-07-12T17:31:40.163Z,3.57
2018-07-12T17:34:08.057Z,3.60
2018-07-12T17:36:36.627Z,3.33
2018-07-12T17:39:05.507Z,3.40
2018-07-12T17:41:33.283Z,3.70
2018-07-12T17:44:01.151Z,3.43
2018-07-12T17:46:29.036Z,3.77
2018-07-12T17:48:57.312Z,3.93
2018-07-12T17:51:26.011Z,3.30
2018-07-12T17:53:53.651Z,3.83
2018-07-12T17:56:22.080Z,3.53
2018-07-12T17:58:51.678Z,3.80
2018-07-12T18:01:19.519Z,3.87
2018-07-12T18:03:47.370Z,3.40
2018-07-12T18:06:15.239Z,3.83
2018-07-12T18:08:43.525Z,3.83
2018-07-12T18:11:11.400Z,4.37
2018-07-12T18:13:39.272Z,3.67
2018-07-12T18:16:07.158Z,3.50
2018-07-12T18:18:34.971Z,3.80
2018-07-12T18:21:02.864Z,3.70
2018-07-12T18:23:31.148Z,3.43
2018-07-12T18:25:59.015Z,3.47
2018-07-12T18:28:27.066Z,2.50
2018-07-12T18:30:54.961Z,1.53
2018-07-12T18:33:22.825Z,1.60
2018-07-12T18:35:50.998Z,1.60
2018-07-12T18:38:18.895Z,1.33
2018-07-12T18:40:47.124Z,1.63
2018-07-12T18:56:15.243Z,2.87
2018-07-12T18:58:56.151Z,1.30
2018-07-12T19:01:26.635Z,1.30
2018-07-12T19:03:58.891Z,1.30
2018-07-12T19:06:34.236Z,1.10
2018-07-12T19:09:02.584Z,1.30
2018-07-12T19:11:30.600Z,1.40
2018-07-12T19:13:59.987Z,1.20
2018-07-12T19:16:28.291Z,1.07
2018-07-12T19:18:56.635Z,1.37
2018-07-12T19:21:24.949Z,1.30
2018-07-12T19:24:01.408Z,1.17
2018-07-12T19:26:33.381Z,2.70
2018-07-12T19:29:04.574Z,1.27
2018-07-12T19:31:35.657Z,1.10
2018-07-12T19:34:07.525Z,1.20
2018-07-12T19:36:38.810Z,1.27
2018-07-12T19:39:12.850Z,1.30
2018-07-12T19:41:46.766Z,1.27
2018-07-12T19:44:16.438Z,1.53
2018-07-12T19:46:47.108Z,1.40
2018-07-12T19:49:18.480Z,1.30
2018-07-12T19:51:58.461Z,1.47
2018-07-12T19:54:40.313Z,1.60
2018-07-12T19:57:12.521Z,1.67
2018-07-12T19:59:43.194Z,1.53
2018-07-12T20:02:16.632Z,1.57
2018-07-12T20:04:48.636Z,1.47
2018-07-12T20:07:19.209Z,2.10
2018-07-12T20:09:50.212Z,1.90
2018-07-12T20:12:21.568Z,1.70
2018-07-12T20:15:19.938Z,1.87
2018-07-12T20:17:52.100Z,1.90
2018-07-12T20:20:24.092Z,1.67
2018-07-12T20:22:54.960Z,2.00
2018-07-12T20:25:25.972Z,2.40
2018-07-12T20:27:56.689Z,2.10
2018-07-12T20:31:26.104Z,1.87
2018-07-12T20:34:14.840Z,2.10
2018-07-12T20:36:48.940Z,2.37
2018-07-12T20:39:19.947Z,2.67
2018-07-12T20:41:51.710Z,2.50
2018-07-12T20:44:44.262Z,3.00
2018-07-12T20:47:14.322Z,2.97
2018-07-12T20:49:47.208Z,3.13
2018-07-12T20:52:17.887Z,3.33
2018-07-12T20:54:48.822Z,3.47
2018-07-12T21:04:15.172Z,3.97
2018-07-12T21:06:42.982Z,4.73
2018-07-12T21:09:12.440Z,4.93
2018-07-12T21:11:40.603Z,5.77
2018-07-12T21:14:08.631Z,5.93
2018-07-12T21:16:37.543Z,6.07
2018-07-12T21:19:05.395Z,6.50
2018-07-12T21:21:33.174Z,6.90
2018-07-12T21:24:01.070Z,6.67
2018-07-12T21:26:29.000Z,6.47
2018-07-12T21:28:56.978Z,6.80
2018-07-12T21:32:54.238Z,6.20
2018-07-12T21:35:22.238Z,6.73
2018-07-12T21:37:50.089Z,7.30
2018-07-12T21:40:17.964Z,7.83
2018-07-12T21:42:45.831Z,7.27
2018-07-12T21:45:13.440Z,7.53
2018-07-12T21:47:41.684Z,7.90
2018-07-12T21:50:11.158Z,7.00
2018-07-12T21:52:39.028Z,7.67
2018-07-12T21:55:06.894Z,8.03
2018-07-12T21:57:34.692Z,8.20
2018-07-12T22:00:02.535Z,7.87
2018-07-12T22:02:30.403Z,7.67
2018-07-12T22:04:58.051Z,8.07
2018-07-12T22:07:31.244Z,8.27
2018-07-12T22:09:59.132Z,8.40
2018-07-12T22:12:26.991Z,8.50
2018-07-12T22:14:55.015Z,7.93
2018-07-12T22:17:23.252Z,8.93
2018-07-12T22:19:50.979Z,9.23
2018-07-12T22:22:18.777Z,9.30
2018-07-12T22:24:58.339Z,10.07
2018-07-12T22:27:31.015Z,10.70
2018-07-12T22:30:00.300Z,10.23
2018-07-12T22:32:30.114Z,11.30
2018-07-12T22:35:00.589Z,11.87
2018-07-12T22:37:38.639Z,11.73
2018-07-12T22:40:22.887Z,12.03
2018-07-12T22:43:03.795Z,12.17
2018-07-12T22:45:44.729Z,13.63
2018-07-12T22:48:23.132Z,14.07
2018-07-12T22:51:06.589Z,13.40
2018-07-12T22:53:39.854Z,13.30
2018-07-12T22:56:19.923Z,14.70
2018-07-12T22:59:04.138Z,16.43
2018-07-12T23:01:47.698Z,15.87
2018-07-12T23:04:30.199Z,16.00
2018-07-12T23:07:10.311Z,17.33
2018-07-12T23:09:48.160Z,15.93
2018-07-12T23:12:23.581Z,16.43
2018-07-12T23:15:02.647Z,16.33
2018-07-12T23:17:41.893Z,17.70
2018-07-12T23:20:15.984Z,17.70
2018-07-12T23:22:49.463Z,18.23
2018-07-12T23:25:17.325Z,18.83
2018-07-12T23:27:45.161Z,17.27
2018-07-12T23:30:13.594Z,19.77
2018-07-12T23:32:41.546Z,19.60
2018-07-12T23:35:11.017Z,18.70
2018-07-12T23:37:39.079Z,19.13
2018-07-12T23:40:06.972Z,18.83
2018-07-12T23:42:34.632Z,18.17
2018-07-12T23:45:02.497Z,18.90
2018-07-12T23:47:30.280Z,19.67
2018-07-12T23:49:58.754Z,19.53
2018-07-12T23:52:27.094Z,19.27
2018-07-12T23:54:54.775Z,19.63
2018-07-12T23:57:23.443Z,20.20
2018-07-12T23:59:51.256Z,19.27
